Archival Weather

Westchester County

White Plains, New York (KHPN)

Report from: Friday, February 23, 2024 8:56 AM EST
Current time: Wednesday, May 29, 2024 8:33 PM EDT

Current weather – Weather history – Daily summaries
Weather forecast

Present weatherMist
Temperature4.4°C (39.9°F)
Wind chill1.4°C (34.5°F)
Dew point3.3°C (37.9°F)
Winds 7 kts (3.6 m/s, 8.1 mph) West-Northwest (300°)
Visibility2.5 mi. (4 km)
Clouds Ceiling: Broken clouds 5,000 ft. (1,524 m)
Altimeter29.51 in.Hg (999 mB)
Relative humidity93 %
Density altitude-712 ft. (-217 m)
Sea-level pressure100.0 kPa (1000 mB, 29.53 in.Hg)
Remarks Automated weather observing station with precipitation discriminator
Flight conditions Instrument Meteorological Conditions
Raw dataKHPN 231356Z 30007KT 2 1/2SM BR BKN050 04/03 A2951 RMK AO2 SLP999 T00440033
An error has occurred. This application may no longer respond until reloaded. Reload 🗙